createdAt,value
2018-12-18T00:02:06.918Z,13.80
2018-12-18T00:04:34.400Z,13.70
2018-12-18T00:07:01.907Z,13.93
2018-12-18T00:09:29.415Z,13.53
2018-12-18T00:11:59.347Z,14.20
2018-12-18T00:14:26.602Z,13.63
2018-12-18T00:16:54.179Z,13.73
2018-12-18T00:19:21.664Z,13.70
2018-12-18T00:21:49.157Z,14.83
2018-12-18T00:24:16.704Z,13.50
2018-12-18T00:26:44.183Z,15.37
2018-12-18T00:29:11.679Z,16.43
2018-12-18T00:31:39.313Z,14.17
2018-12-18T00:34:06.818Z,14.47
2018-12-18T00:36:34.311Z,12.37
2018-12-18T00:39:01.823Z,12.00
2018-12-18T00:41:29.746Z,13.13
2018-12-18T00:43:57.240Z,14.73
2018-12-18T00:46:24.788Z,13.40
2018-12-18T00:48:52.280Z,14.20
2018-12-18T00:51:19.775Z,13.13
2018-12-18T00:53:47.287Z,12.60
2018-12-18T00:56:14.779Z,13.50
2018-12-18T00:58:42.275Z,12.00
2018-12-18T01:01:09.856Z,11.93
2018-12-18T01:03:37.348Z,11.90
2018-12-18T01:06:04.888Z,12.27
2018-12-18T01:08:32.411Z,10.53
2018-12-18T01:10:59.931Z,10.23
2018-12-18T01:13:27.438Z,11.90
2018-12-18T01:15:55.402Z,11.13
2018-12-18T01:18:22.878Z,9.10
2018-12-18T01:20:50.377Z,9.80
2018-12-18T01:23:17.879Z,9.33
2018-12-18T01:25:45.427Z,9.40
2018-12-18T01:28:12.906Z,9.43
2018-12-18T01:30:40.419Z,9.30
2018-12-18T01:33:07.903Z,9.73
2018-12-18T01:35:35.383Z,8.20
2018-12-18T01:38:03.490Z,8.57
2018-12-18T01:40:31.015Z,9.07
2018-12-18T01:42:58.507Z,9.33
2018-12-18T01:45:26.071Z,9.50
2018-12-18T01:47:53.564Z,9.10
2018-12-18T01:50:21.053Z,9.30
2018-12-18T01:52:48.569Z,9.83
2018-12-18T01:55:16.044Z,8.83
2018-12-18T01:57:44.448Z,8.60
2018-12-18T02:00:11.952Z,7.53
2018-12-18T02:02:39.447Z,7.37
2018-12-18T02:05:07.024Z,7.67
2018-12-18T02:07:34.514Z,8.03
2018-12-18T02:10:02.057Z,7.43
2018-12-18T02:12:29.593Z,7.90
2018-12-18T02:14:57.296Z,7.33
2018-12-18T02:17:24.793Z,7.87
2018-12-18T02:19:52.923Z,7.70
2018-12-18T02:22:20.398Z,7.20
2018-12-18T02:24:47.881Z,7.50
2018-12-18T02:27:15.403Z,8.03
2018-12-18T02:29:43.319Z,7.17
2018-12-18T02:32:10.812Z,7.20
2018-12-18T02:34:38.333Z,6.83
2018-12-18T02:37:05.820Z,6.40
2018-12-18T02:39:33.724Z,6.60
2018-12-18T02:42:01.280Z,6.80
2018-12-18T02:44:28.792Z,6.60
2018-12-18T02:46:56.319Z,6.63
2018-12-18T02:49:24.026Z,6.90
2018-12-18T02:51:51.528Z,6.90
2018-12-18T02:54:19.006Z,6.93
2018-12-18T02:56:46.519Z,6.50
2018-12-18T02:59:14.083Z,7.03
2018-12-18T03:01:41.627Z,6.83
2018-12-18T03:04:09.205Z,6.33
2018-12-18T03:06:36.799Z,7.03
2018-12-18T03:09:05.735Z,6.70
2018-12-18T03:11:33.280Z,7.20
2018-12-18T03:14:00.760Z,6.90
2018-12-18T03:16:28.248Z,7.23
2018-12-18T03:18:55.808Z,7.00
2018-12-18T03:21:23.366Z,6.90
2018-12-18T03:23:50.856Z,7.73
2018-12-18T03:26:18.379Z,6.90
2018-12-18T03:28:45.867Z,6.90
2018-12-18T03:31:13.424Z,7.00
2018-12-18T03:33:40.926Z,6.97
2018-12-18T03:36:08.424Z,7.80
2018-12-18T03:38:35.912Z,6.80
2018-12-18T03:41:03.491Z,7.33
2018-12-18T03:43:30.987Z,6.83
2018-12-18T03:45:58.472Z,7.50
2018-12-18T03:48:26.139Z,7.77
2018-12-18T03:50:53.631Z,7.17
2018-12-18T03:53:21.122Z,6.43
2018-12-18T03:55:49.231Z,7.40
2018-12-18T03:58:16.719Z,7.93
2018-12-18T04:00:44.826Z,8.25
2018-12-18T04:03:12.347Z,6.63
2018-12-18T04:05:39.839Z,6.97
2018-12-18T04:08:07.353Z,7.10
2018-12-18T04:10:34.878Z,7.63
2018-12-18T04:13:02.374Z,7.70
2018-12-18T04:15:30.645Z,6.80
2018-12-18T04:17:58.222Z,7.37
2018-12-18T04:20:25.709Z,6.73
2018-12-18T04:22:53.188Z,6.53
2018-12-18T04:25:20.700Z,6.67
2018-12-18T04:27:48.194Z,6.63
2018-12-18T04:30:15.668Z,6.33
2018-12-18T04:32:43.179Z,6.20
2018-12-18T04:35:10.668Z,5.57
2018-12-18T04:37:38.160Z,5.77
2018-12-18T04:40:07.710Z,6.33
2018-12-18T04:42:35.187Z,5.70
2018-12-18T04:45:02.803Z,5.87
2018-12-18T04:47:30.319Z,5.17
2018-12-18T04:49:57.812Z,5.70
2018-12-18T04:52:25.298Z,5.17
2018-12-18T04:54:52.843Z,5.33
2018-12-18T04:57:20.328Z,4.60
2018-12-18T04:59:47.816Z,4.93
2018-12-18T05:02:15.366Z,5.13
2018-12-18T05:04:50.020Z,4.93
2018-12-18T05:07:12.392Z,5.30
2018-12-18T05:09:39.869Z,4.83
2018-12-18T05:12:07.351Z,4.40
2018-12-18T05:14:34.852Z,4.87
2018-12-18T05:17:02.359Z,4.83
2018-12-18T05:19:29.863Z,4.90
2018-12-18T05:21:57.651Z,5.27
2018-12-18T05:24:25.142Z,5.23
2018-12-18T05:26:52.689Z,5.87
2018-12-18T05:29:20.191Z,5.10
2018-12-18T05:31:47.724Z,5.30
2018-12-18T05:34:15.208Z,5.23
2018-12-18T05:36:42.750Z,5.17
2018-12-18T05:39:10.231Z,5.40
2018-12-18T05:41:37.719Z,5.07
2018-12-18T05:44:05.231Z,5.60
2018-12-18T05:46:32.737Z,5.43
2018-12-18T05:49:00.219Z,5.07
2018-12-18T05:51:27.735Z,4.07
2018-12-18T05:53:55.222Z,4.40
2018-12-18T05:56:22.712Z,4.73
2018-12-18T05:58:50.215Z,5.07
2018-12-18T06:01:17.707Z,4.83
2018-12-18T06:03:45.321Z,5.10
2018-12-18T06:06:12.829Z,4.73
2018-12-18T06:08:40.319Z,5.40
2018-12-18T06:11:07.821Z,5.30
2018-12-18T06:13:35.442Z,5.67
2018-12-18T06:16:02.951Z,5.03
2018-12-18T06:18:30.503Z,5.10
2018-12-18T06:20:58.095Z,4.27
2018-12-18T06:23:26.276Z,4.97
2018-12-18T06:25:53.764Z,5.10
2018-12-18T06:28:21.303Z,4.57
2018-12-18T06:30:48.778Z,4.60
2018-12-18T06:33:16.267Z,5.13
2018-12-18T06:35:43.774Z,5.20
2018-12-18T06:38:11.250Z,4.80
2018-12-18T06:40:38.759Z,5.10
2018-12-18T06:43:06.267Z,4.63
2018-12-18T06:45:33.763Z,4.97
2018-12-18T06:48:01.247Z,4.77
2018-12-18T06:50:28.852Z,6.23
2018-12-18T06:52:56.339Z,5.23
2018-12-18T06:55:23.870Z,5.40
2018-12-18T06:57:51.695Z,5.43
2018-12-18T07:00:19.175Z,5.17
2018-12-18T07:02:46.671Z,5.10
2018-12-18T07:05:16.983Z,4.90
2018-12-18T07:07:44.496Z,5.13
2018-12-18T07:10:12.039Z,5.00
2018-12-18T07:12:39.546Z,4.50
2018-12-18T07:15:07.032Z,5.27
2018-12-18T07:17:34.584Z,5.53
2018-12-18T07:20:02.274Z,5.07
2018-12-18T07:22:29.754Z,4.87
2018-12-18T07:24:57.266Z,5.10
2018-12-18T07:27:25.214Z,4.87
2018-12-18T07:29:52.695Z,4.80
2018-12-18T07:32:20.188Z,4.70
2018-12-18T07:34:47.721Z,4.70
2018-12-18T07:37:15.793Z,4.80
2018-12-18T07:39:43.304Z,5.07
2018-12-18T07:42:10.811Z,5.07
2018-12-18T07:44:38.293Z,4.73
2018-12-18T07:47:05.783Z,4.53
2018-12-18T07:49:33.359Z,4.33
2018-12-18T07:52:00.848Z,4.17
2018-12-18T07:54:28.326Z,4.90
2018-12-18T07:56:55.839Z,4.20
2018-12-18T07:59:23.324Z,4.30
2018-12-18T08:01:50.820Z,4.70
2018-12-18T08:04:18.327Z,5.70
2018-12-18T08:06:45.875Z,7.10
2018-12-18T08:09:13.363Z,7.30
2018-12-18T08:11:40.907Z,9.23
2018-12-18T08:14:08.395Z,8.40
2018-12-18T08:16:35.993Z,9.60
2018-12-18T08:19:03.511Z,8.77
2018-12-18T08:21:31.062Z,9.57
2018-12-18T08:23:58.555Z,9.00
2018-12-18T08:26:26.063Z,7.50
2018-12-18T08:28:53.551Z,10.53
2018-12-18T08:31:21.037Z,5.60
2018-12-18T08:33:48.615Z,5.30
2018-12-18T08:36:16.091Z,5.40
2018-12-18T08:38:43.582Z,4.87
2018-12-18T08:41:11.152Z,5.30
2018-12-18T08:43:38.648Z,5.13
2018-12-18T08:46:10.130Z,4.77
2018-12-18T08:48:35.694Z,4.23
2018-12-18T08:51:03.176Z,4.60
2018-12-18T08:53:30.665Z,4.50
2018-12-18T08:55:58.198Z,4.23
2018-12-18T08:58:25.689Z,4.50
2018-12-18T09:00:53.175Z,5.00
2018-12-18T09:03:20.719Z,4.27
2018-12-18T09:05:48.263Z,4.53
2018-12-18T09:08:15.752Z,4.27
2018-12-18T09:10:43.279Z,4.10
2018-12-18T09:13:10.755Z,4.20
2018-12-18T09:15:43.999Z,4.70
2018-12-18T09:18:11.543Z,4.00
2018-12-18T09:20:39.028Z,3.90
2018-12-18T09:23:06.549Z,4.83
2018-12-18T09:25:34.056Z,4.60
2018-12-18T09:28:01.583Z,4.00
2018-12-18T09:30:29.073Z,4.00
2018-12-18T09:32:56.555Z,5.13
2018-12-18T09:35:24.109Z,4.23
2018-12-18T09:37:53.631Z,4.30
2018-12-18T09:40:21.293Z,4.47
2018-12-18T09:42:54.399Z,4.13
2018-12-18T09:45:21.891Z,4.47
2018-12-18T09:47:49.398Z,4.00
2018-12-18T09:50:16.901Z,4.07
2018-12-18T09:52:44.378Z,4.77
2018-12-18T09:55:11.868Z,3.83
2018-12-18T09:57:44.972Z,4.50
2018-12-18T10:00:12.459Z,4.57
2018-12-18T10:02:39.948Z,4.40
2018-12-18T10:05:07.528Z,5.03
2018-12-18T10:07:35.013Z,4.30
2018-12-18T10:10:02.546Z,5.27
2018-12-18T10:12:35.650Z,4.47
2018-12-18T10:15:03.261Z,4.33
2018-12-18T10:17:30.758Z,4.80
2018-12-18T10:19:58.283Z,4.30
2018-12-18T10:22:25.759Z,4.10
2018-12-18T10:24:53.279Z,4.33
2018-12-18T10:27:20.788Z,3.73
2018-12-18T10:29:48.289Z,4.20
2018-12-18T10:32:15.834Z,4.00
2018-12-18T10:34:43.343Z,4.40
2018-12-18T10:37:10.840Z,4.57
2018-12-18T10:39:38.319Z,4.20
2018-12-18T10:42:05.831Z,3.80
2018-12-18T10:44:33.318Z,4.20
2018-12-18T10:47:00.798Z,3.83
2018-12-18T10:49:28.306Z,3.87
2018-12-18T10:51:56.491Z,3.60
2018-12-18T10:54:23.988Z,3.57
2018-12-18T10:56:51.571Z,3.10
2018-12-18T10:59:19.102Z,3.87
2018-12-18T11:01:47.156Z,3.00
2018-12-18T11:04:14.663Z,3.37
2018-12-18T11:06:42.229Z,3.30
2018-12-18T11:09:09.879Z,3.20
2018-12-18T11:11:37.841Z,3.10
2018-12-18T11:14:05.432Z,3.33
2018-12-18T11:16:37.249Z,2.90
2018-12-18T11:19:02.459Z,3.10
2018-12-18T11:21:29.943Z,3.10
2018-12-18T11:23:57.471Z,2.77
2018-12-18T11:26:24.991Z,3.20
2018-12-18T11:28:52.476Z,3.20
2018-12-18T11:31:19.989Z,2.87
2018-12-18T11:33:47.567Z,2.93
2018-12-18T11:36:16.667Z,3.10
2018-12-18T11:38:44.408Z,2.73
2018-12-18T11:41:11.922Z,2.80
2018-12-18T11:43:39.491Z,2.53
2018-12-18T11:46:06.966Z,3.00
2018-12-18T11:48:34.480Z,2.77
2018-12-18T11:51:01.959Z,3.10
2018-12-18T11:53:29.509Z,3.03
2018-12-18T11:55:57.010Z,3.00
2018-12-18T11:58:24.504Z,2.67
2018-12-18T12:00:52.078Z,2.90
2018-12-18T12:03:19.649Z,2.73
2018-12-18T12:05:47.143Z,2.57
2018-12-18T12:08:14.631Z,2.60
2018-12-18T12:10:42.140Z,2.43
2018-12-18T12:13:09.648Z,2.90
2018-12-18T12:15:37.162Z,2.90
2018-12-18T12:18:04.672Z,3.40
2018-12-18T12:20:32.179Z,3.17
2018-12-18T12:22:59.781Z,2.77
2018-12-18T12:25:27.293Z,2.43
2018-12-18T12:28:00.344Z,2.70
2018-12-18T12:30:27.907Z,2.40
2018-12-18T12:32:55.388Z,2.53
2018-12-18T12:35:22.868Z,2.50
2018-12-18T12:37:50.383Z,2.80
2018-12-18T12:40:17.859Z,3.67
2018-12-18T12:42:46.347Z,2.80
2018-12-18T12:45:13.866Z,2.70
2018-12-18T12:47:43.325Z,2.97
2018-12-18T12:50:11.413Z,2.40
2018-12-18T12:52:38.909Z,2.20
2018-12-18T12:55:06.536Z,3.20
2018-12-18T12:57:34.019Z,2.60
2018-12-18T13:00:01.608Z,2.83
2018-12-18T13:02:29.134Z,2.67
2018-12-18T13:04:56.624Z,2.60
2018-12-18T13:07:24.115Z,3.30
2018-12-18T13:09:51.619Z,2.77
2018-12-18T13:12:19.103Z,2.67
2018-12-18T13:14:46.578Z,2.97
2018-12-18T13:17:14.122Z,2.90
2018-12-18T13:19:41.601Z,2.80
2018-12-18T13:22:09.082Z,3.00
2018-12-18T13:24:36.587Z,2.60
2018-12-18T13:27:04.095Z,2.87
2018-12-18T13:29:31.931Z,2.80
2018-12-18T13:31:59.517Z,3.00
2018-12-18T13:34:26.995Z,2.90
2018-12-18T13:36:54.484Z,3.10
2018-12-18T13:39:22.059Z,2.80
2018-12-18T13:41:49.649Z,2.70
2018-12-18T13:44:17.171Z,2.90
2018-12-18T13:46:44.751Z,2.70
2018-12-18T13:49:12.228Z,2.73
2018-12-18T13:51:39.710Z,2.80
2018-12-18T13:54:07.314Z,2.80
2018-12-18T13:56:34.795Z,2.60
2018-12-18T13:59:02.275Z,2.70
2018-12-18T14:01:29.791Z,3.23
2018-12-18T14:03:57.401Z,3.23
2018-12-18T14:06:24.878Z,3.10
2018-12-18T14:08:52.407Z,3.50
2018-12-18T14:11:19.894Z,3.00
2018-12-18T14:13:47.479Z,3.13
2018-12-18T14:16:14.975Z,2.87
2018-12-18T14:18:42.460Z,3.17
2018-12-18T14:21:10.007Z,3.50
2018-12-18T14:23:37.611Z,2.97
2018-12-18T14:26:05.112Z,3.10
2018-12-18T14:28:33.196Z,2.80
2018-12-18T14:31:00.705Z,3.23
2018-12-18T14:33:28.190Z,2.90
2018-12-18T14:35:55.666Z,2.57
2018-12-18T14:38:23.436Z,2.97
2018-12-18T14:40:50.923Z,3.50
2018-12-18T14:43:18.411Z,2.87
2018-12-18T14:45:46.571Z,2.90
2018-12-18T14:48:14.058Z,3.27
2018-12-18T14:50:41.563Z,3.13
2018-12-18T14:53:09.063Z,3.07
2018-12-18T14:55:36.562Z,3.27
2018-12-18T14:58:04.116Z,3.53
2018-12-18T15:00:31.631Z,3.07
2018-12-18T15:02:59.139Z,3.50
2018-12-18T15:05:26.641Z,3.40
2018-12-18T15:07:54.139Z,3.20
2018-12-18T15:10:21.633Z,3.27
2018-12-18T15:12:49.376Z,3.30
2018-12-18T15:15:17.155Z,3.43
2018-12-18T15:17:44.712Z,3.60
2018-12-18T15:20:12.229Z,3.47
2018-12-18T15:22:39.747Z,3.10
2018-12-18T15:25:07.367Z,3.60
2018-12-18T15:27:34.870Z,3.30
2018-12-18T15:30:02.455Z,3.40
2018-12-18T15:32:30.097Z,3.10
2018-12-18T15:34:57.590Z,2.97
2018-12-18T15:37:25.123Z,3.77
2018-12-18T15:39:52.625Z,3.63
2018-12-18T15:42:20.104Z,3.20
2018-12-18T15:44:47.688Z,3.17
2018-12-18T15:47:15.175Z,3.20
2018-12-18T15:49:42.704Z,3.10
2018-12-18T15:52:10.203Z,3.30
2018-12-18T15:54:37.697Z,3.27
2018-12-18T15:57:05.779Z,3.30
2018-12-18T15:59:33.292Z,3.57
2018-12-18T16:02:00.816Z,3.37
2018-12-18T16:04:28.375Z,3.93
2018-12-18T16:06:55.916Z,3.90
2018-12-18T16:09:23.407Z,3.83
2018-12-18T16:11:50.915Z,4.00
2018-12-18T16:14:18.436Z,4.00
2018-12-18T16:16:45.924Z,4.80
2018-12-18T16:19:13.422Z,5.40
2018-12-18T16:21:41.142Z,4.97
2018-12-18T16:24:08.706Z,5.00
2018-12-18T16:26:36.198Z,4.70
2018-12-18T16:29:03.703Z,4.97
2018-12-18T16:31:31.336Z,4.67
2018-12-18T16:33:58.838Z,4.73
2018-12-18T16:36:26.348Z,5.10
2018-12-18T16:38:53.831Z,4.90
2018-12-18T16:41:21.399Z,5.20
2018-12-18T16:43:48.922Z,5.20
2018-12-18T16:46:16.402Z,5.23
2018-12-18T16:48:43.899Z,4.80
2018-12-18T16:51:11.516Z,5.50
2018-12-18T16:53:39.002Z,5.07
2018-12-18T16:56:06.477Z,4.30
2018-12-18T16:58:34.816Z,5.10
2018-12-18T17:01:02.297Z,5.17
2018-12-18T17:03:29.772Z,4.90
2018-12-18T17:05:57.324Z,4.67
2018-12-18T17:08:24.809Z,4.83
2018-12-18T17:10:52.341Z,4.83
2018-12-18T17:13:19.879Z,4.43
2018-12-18T17:15:47.363Z,4.10
2018-12-18T17:18:14.867Z,4.03
2018-12-18T17:20:42.413Z,4.40
2018-12-18T17:23:10.728Z,3.93
2018-12-18T17:25:38.315Z,4.23
2018-12-18T17:28:05.835Z,4.27
2018-12-18T17:30:33.319Z,3.97
2018-12-18T17:33:00.814Z,4.00
2018-12-18T17:35:28.327Z,4.03
2018-12-18T17:37:55.815Z,3.50
2018-12-18T17:40:23.305Z,4.20
2018-12-18T17:42:50.827Z,4.00
2018-12-18T17:45:18.339Z,3.97
2018-12-18T17:47:45.825Z,3.90
2018-12-18T17:50:13.338Z,3.80
2018-12-18T17:52:40.815Z,4.23
2018-12-18T17:55:08.310Z,4.03
2018-12-18T17:57:35.826Z,4.50
2018-12-18T18:00:04.124Z,4.83
2018-12-18T18:02:31.619Z,4.40
2018-12-18T18:04:59.147Z,4.30
2018-12-18T18:07:26.635Z,4.60
2018-12-18T18:09:54.141Z,5.47
2018-12-18T18:12:21.656Z,4.77
2018-12-18T18:14:49.203Z,4.20
2018-12-18T18:17:16.740Z,3.80
2018-12-18T18:19:44.271Z,4.97
2018-12-18T18:22:11.771Z,4.20
2018-12-18T18:24:39.274Z,4.03
2018-12-18T18:27:07.672Z,4.90
2018-12-18T18:29:35.174Z,4.73
2018-12-18T18:32:02.666Z,4.40
2018-12-18T18:34:30.192Z,3.90
2018-12-18T18:36:57.865Z,4.50
2018-12-18T18:39:25.336Z,4.20
2018-12-18T18:41:52.843Z,4.50
2018-12-18T18:44:20.332Z,4.00
2018-12-18T18:46:47.939Z,3.90
2018-12-18T18:49:15.483Z,4.03
2018-12-18T18:51:42.988Z,4.23
2018-12-18T18:54:10.468Z,4.00
2018-12-18T18:56:37.989Z,3.90
2018-12-18T18:59:05.478Z,4.00
2018-12-18T19:01:33.435Z,3.90
2018-12-18T19:04:01.104Z,3.70
2018-12-18T19:06:28.856Z,4.00
2018-12-18T19:08:56.375Z,3.80
2018-12-18T19:11:23.878Z,4.00
2018-12-18T19:13:51.374Z,3.50
2018-12-18T19:16:18.896Z,3.77
2018-12-18T19:18:47.534Z,3.60
2018-12-18T19:21:15.240Z,3.73
2018-12-18T19:23:42.719Z,3.50
2018-12-18T19:26:10.262Z,3.97
2018-12-18T19:28:37.863Z,3.80
2018-12-18T19:31:05.401Z,3.80
2018-12-18T19:33:36.798Z,3.83
2018-12-18T19:36:02.449Z,3.70
2018-12-18T19:38:29.960Z,4.37
2018-12-18T19:40:57.547Z,4.70
2018-12-18T19:43:25.055Z,4.10
2018-12-18T19:45:52.574Z,3.97
2018-12-18T19:48:20.684Z,4.00
2018-12-18T19:50:48.176Z,4.07
2018-12-18T19:53:15.684Z,4.17
2018-12-18T19:55:43.202Z,3.80
2018-12-18T19:58:10.679Z,4.00
2018-12-18T20:00:38.197Z,3.97
2018-12-18T20:03:05.688Z,3.50
2018-12-18T20:05:33.304Z,3.57
2018-12-18T20:08:00.871Z,3.60
2018-12-18T20:10:28.351Z,3.57
2018-12-18T20:12:55.835Z,3.80
2018-12-18T20:15:23.389Z,3.83
2018-12-18T20:17:50.902Z,4.83
2018-12-18T20:20:18.513Z,4.30
2018-12-18T20:22:46.010Z,3.90
2018-12-18T20:25:13.537Z,4.30
2018-12-18T20:27:41.025Z,4.27
2018-12-18T20:30:08.650Z,4.60
2018-12-18T20:32:36.229Z,4.77
2018-12-18T20:35:03.875Z,4.53
2018-12-18T20:37:32.155Z,4.20
2018-12-18T20:39:59.702Z,5.00
2018-12-18T20:42:27.260Z,4.43
2018-12-18T20:44:55.476Z,4.50
2018-12-18T20:47:22.983Z,4.27
2018-12-18T20:49:50.479Z,4.00
2018-12-18T20:52:18.086Z,4.10
2018-12-18T20:54:45.683Z,4.47
2018-12-18T20:57:13.204Z,4.10
2018-12-18T20:59:40.697Z,4.27
2018-12-18T21:02:09.163Z,4.07
2018-12-18T21:04:37.986Z,4.70
2018-12-18T21:07:05.845Z,4.78
2018-12-18T21:09:33.339Z,4.47
2018-12-18T21:12:00.832Z,4.80
2018-12-18T21:14:28.315Z,4.60
2018-12-18T21:16:55.953Z,4.87
2018-12-18T21:19:23.440Z,4.47
2018-12-18T21:21:51.013Z,5.10
2018-12-18T21:24:18.625Z,4.60
2018-12-18T21:26:46.103Z,4.30
2018-12-18T21:29:13.597Z,4.97
2018-12-18T21:31:41.236Z,4.70
2018-12-18T21:34:10.097Z,5.00
2018-12-18T21:36:37.940Z,4.57
2018-12-18T21:39:07.488Z,4.83
2018-12-18T21:41:35.060Z,4.93
2018-12-18T21:44:03.080Z,5.00
2018-12-18T21:46:31.225Z,4.27
2018-12-18T21:48:59.948Z,5.20
2018-12-18T21:51:27.491Z,5.07
2018-12-18T21:53:55.023Z,4.83
2018-12-18T21:56:22.505Z,4.57
2018-12-18T21:58:50.004Z,4.77
2018-12-18T22:01:17.559Z,4.50
2018-12-18T22:03:45.035Z,4.77
2018-12-18T22:06:12.516Z,4.63
2018-12-18T22:08:40.038Z,5.20
2018-12-18T22:11:07.640Z,4.70
2018-12-18T22:13:35.182Z,5.40
2018-12-18T22:16:02.703Z,4.70
2018-12-18T22:18:30.187Z,4.77
2018-12-18T22:20:57.660Z,4.70
2018-12-18T22:23:25.168Z,5.20
2018-12-18T22:25:52.666Z,4.47
2018-12-18T22:28:20.144Z,4.90
2018-12-18T22:30:47.767Z,5.20
2018-12-18T22:33:15.245Z,4.63
2018-12-18T22:35:42.721Z,4.67
2018-12-18T22:38:10.254Z,4.70
2018-12-18T22:40:37.745Z,4.30
2018-12-18T22:43:05.222Z,4.43
2018-12-18T22:45:32.727Z,4.63
2018-12-18T22:48:00.219Z,5.07
2018-12-18T22:50:27.805Z,4.80
2018-12-18T22:52:55.318Z,5.03
2018-12-18T22:55:22.836Z,5.07
2018-12-18T22:57:50.356Z,5.10
2018-12-18T23:00:23.878Z,4.70
2018-12-18T23:02:51.376Z,4.90
2018-12-18T23:05:18.864Z,5.13
2018-12-18T23:07:46.397Z,5.20
2018-12-18T23:10:13.882Z,5.00
2018-12-18T23:12:41.364Z,4.63
2018-12-18T23:15:08.945Z,5.23
2018-12-18T23:17:36.434Z,4.23
2018-12-18T23:20:05.150Z,4.47
2018-12-18T23:22:32.765Z,4.30
2018-12-18T23:25:00.247Z,4.60
2018-12-18T23:27:28.320Z,4.40
2018-12-18T23:29:55.864Z,4.20
2018-12-18T23:32:23.348Z,4.50
2018-12-18T23:34:50.828Z,4.40
2018-12-18T23:37:18.344Z,4.40
2018-12-18T23:39:45.901Z,4.33
2018-12-18T23:42:13.375Z,3.93
2018-12-18T23:44:40.899Z,4.90
2018-12-18T23:47:08.380Z,4.50
2018-12-18T23:49:36.097Z,4.33
2018-12-18T23:52:03.730Z,4.87
2018-12-18T23:54:31.216Z,5.07
2018-12-18T23:56:58.704Z,4.80
2018-12-18T23:59:26.215Z,4.83
